sensor_id;sensor_type;location;lat;lon;timestamp;pressure;altitude;pressure_sealevel;temperature;humidity
50394;BME280;36308;46.312;25.288;2024-02-14T00:01:31;95848.78;;;5.01;73.79
50394;BME280;36308;46.312;25.288;2024-02-14T00:03:56;95854.94;;;5.01;73.50
50394;BME280;36308;46.312;25.288;2024-02-14T00:06:22;95860.25;;;5.01;73.97
50394;BME280;36308;46.312;25.288;2024-02-14T00:08:49;95847.03;;;4.95;73.55
50394;BME280;36308;46.312;25.288;2024-02-14T00:11:14;95857.47;;;4.96;73.37
50394;BME280;36308;46.312;25.288;2024-02-14T00:13:40;95849.69;;;4.95;73.80
50394;BME280;36308;46.312;25.288;2024-02-14T00:16:06;95857.69;;;4.95;74.05
50394;BME280;36308;46.312;25.288;2024-02-14T00:18:32;95862.81;;;4.96;73.49
50394;BME280;36308;46.312;25.288;2024-02-14T00:20:57;95859.56;;;4.94;73.81
50394;BME280;36308;46.312;25.288;2024-02-14T00:23:23;95862.22;;;4.94;74.38
50394;BME280;36308;46.312;25.288;2024-02-14T00:25:48;95861.63;;;4.92;74.06
50394;BME280;36308;46.312;25.288;2024-02-14T00:28:14;95860.34;;;4.95;73.90
50394;BME280;36308;46.312;25.288;2024-02-14T00:30:39;95861.63;;;4.92;73.78
50394;BME280;36308;46.312;25.288;2024-02-14T00:33:05;95859.19;;;4.91;73.63
50394;BME280;36308;46.312;25.288;2024-02-14T00:35:31;95870.88;;;4.90;73.65
50394;BME280;36308;46.312;25.288;2024-02-14T00:37:57;95868.19;;;4.90;73.76
50394;BME280;36308;46.312;25.288;2024-02-14T00:40:22;95871.13;;;4.88;73.76
50394;BME280;36308;46.312;25.288;2024-02-14T00:42:49;95874.00;;;4.86;73.68
50394;BME280;36308;46.312;25.288;2024-02-14T00:45:14;95860.97;;;4.78;73.82
50394;BME280;36308;46.312;25.288;2024-02-14T00:47:40;95877.25;;;4.89;73.89
50394;BME280;36308;46.312;25.288;2024-02-14T00:50:06;95883.00;;;4.85;73.62
50394;BME280;36308;46.312;25.288;2024-02-14T00:52:32;95879.75;;;4.83;73.64
50394;BME280;36308;46.312;25.288;2024-02-14T00:54:57;95885.66;;;4.85;73.86
50394;BME280;36308;46.312;25.288;2024-02-14T00:57:22;95889.97;;;4.86;73.71
50394;BME280;36308;46.312;25.288;2024-02-14T00:59:53;95886.72;;;4.84;74.06
50394;BME280;36308;46.312;25.288;2024-02-14T01:02:21;95885.09;;;4.83;73.90
50394;BME280;36308;46.312;25.288;2024-02-14T01:04:47;95896.09;;;4.87;73.88
50394;BME280;36308;46.312;25.288;2024-02-14T01:07:13;95885.09;;;4.83;73.91
50394;BME280;36308;46.312;25.288;2024-02-14T01:09:38;95896.91;;;4.88;73.53
50394;BME280;36308;46.312;25.288;2024-02-14T01:12:04;95886.72;;;4.84;73.93
50394;BME280;36308;46.312;25.288;2024-02-14T01:14:31;95893.66;;;4.85;73.79
50394;BME280;36308;46.312;25.288;2024-02-14T01:16:56;95892.63;;;4.86;73.73
50394;BME280;36308;46.312;25.288;2024-02-14T01:19:22;95859.53;;;4.64;73.49
50394;BME280;36308;46.312;25.288;2024-02-14T01:21:49;95895.53;;;4.85;73.67
50394;BME280;36308;46.312;25.288;2024-02-14T01:24:15;95895.75;;;4.83;73.95
50394;BME280;36308;46.312;25.288;2024-02-14T01:26:41;95889.81;;;4.81;73.93
50394;BME280;36308;46.312;25.288;2024-02-14T01:29:07;95891.69;;;4.81;74.18
50394;BME280;36308;46.312;25.288;2024-02-14T01:31:35;95897.81;;;4.81;74.11
50394;BME280;36308;46.312;25.288;2024-02-14T01:34:01;95858.81;;;4.57;74.02
50394;BME280;36308;46.312;25.288;2024-02-14T01:36:28;95890.16;;;4.73;74.34
50394;BME280;36308;46.312;25.288;2024-02-14T01:38:54;95904.78;;;4.82;73.69
50394;BME280;36308;46.312;25.288;2024-02-14T01:41:19;95913.00;;;4.81;73.77
50394;BME280;36308;46.312;25.288;2024-02-14T01:43:46;95908.94;;;4.78;73.73
50394;BME280;36308;46.312;25.288;2024-02-14T01:46:12;95905.25;;;4.79;73.57
50394;BME280;36308;46.312;25.288;2024-02-14T01:48:38;95902.00;;;4.77;73.61
50394;BME280;36308;46.312;25.288;2024-02-14T01:51:05;95913.78;;;4.81;73.91
50394;BME280;36308;46.312;25.288;2024-02-14T01:53:53;95912.19;;;4.80;73.55
50394;BME280;36308;46.312;25.288;2024-02-14T01:56:19;95909.72;;;4.79;74.05
50394;BME280;36308;46.312;25.288;2024-02-14T01:58:45;95872.34;;;4.55;73.47
50394;BME280;36308;46.312;25.288;2024-02-14T02:01:11;95908.13;;;4.78;73.99
50394;BME280;36308;46.312;25.288;2024-02-14T02:03:37;95906.72;;;4.75;73.72
50394;BME280;36308;46.312;25.288;2024-02-14T02:06:05;95909.72;;;4.79;73.95
50394;BME280;36308;46.312;25.288;2024-02-14T02:08:30;95876.84;;;4.55;73.71
50394;BME280;36308;46.312;25.288;2024-02-14T02:10:57;95914.13;;;4.73;73.77
50394;BME280;36308;46.312;25.288;2024-02-14T02:13:23;95913.28;;;4.73;73.91
50394;BME280;36308;46.312;25.288;2024-02-14T02:15:48;95919.00;;;4.76;74.23
50394;BME280;36308;46.312;25.288;2024-02-14T02:18:14;95922.13;;;4.73;73.84
50394;BME280;36308;46.312;25.288;2024-02-14T02:20:40;95920.84;;;4.76;73.82
50394;BME280;36308;46.312;25.288;2024-02-14T02:23:08;95919.28;;;4.68;74.11
50394;BME280;36308;46.312;25.288;2024-02-14T02:25:34;95928.25;;;4.74;73.78
50394;BME280;36308;46.312;25.288;2024-02-14T02:28:00;95931.72;;;4.74;74.09
50394;BME280;36308;46.312;25.288;2024-02-14T02:30:25;95934.38;;;4.74;74.21
50394;BME280;36308;46.312;25.288;2024-02-14T02:32:51;95934.97;;;4.76;73.77
50394;BME280;36308;46.312;25.288;2024-02-14T02:35:17;95932.78;;;4.73;73.81
50394;BME280;36308;46.312;25.288;2024-02-14T02:37:46;95931.13;;;4.72;74.16
50394;BME280;36308;46.312;25.288;2024-02-14T02:40:13;95943.19;;;4.75;73.91
50394;BME280;36308;46.312;25.288;2024-02-14T02:42:40;95946.09;;;4.73;74.11
50394;BME280;36308;46.312;25.288;2024-02-14T02:45:05;95952.00;;;4.75;74.16
50394;BME280;36308;46.312;25.288;2024-02-14T02:47:32;95943.84;;;4.70;73.98
50394;BME280;36308;46.312;25.288;2024-02-14T02:49:57;95956.50;;;4.75;74.41
50394;BME280;36308;46.312;25.288;2024-02-14T02:52:25;95961.00;;;4.74;74.14
50394;BME280;36308;46.312;25.288;2024-02-14T02:54:50;95963.69;;;4.74;73.95
50394;BME280;36308;46.312;25.288;2024-02-14T02:57:17;95967.41;;;4.73;73.82
50394;BME280;36308;46.312;25.288;2024-02-14T02:59:44;95962.50;;;4.70;73.70
50394;BME280;36308;46.312;25.288;2024-02-14T03:02:11;95954.97;;;4.67;73.82
50394;BME280;36308;46.312;25.288;2024-02-14T03:04:38;95969.47;;;4.71;73.91
50394;BME280;36308;46.312;25.288;2024-02-14T03:07:03;95972.56;;;4.68;73.82
50394;BME280;36308;46.312;25.288;2024-02-14T03:09:32;95972.56;;;4.68;73.82
50394;BME280;36308;46.312;25.288;2024-02-14T03:11:58;95976.69;;;4.64;74.00
50394;BME280;36308;46.312;25.288;2024-02-14T03:14:23;95963.09;;;4.54;73.37
50394;BME280;36308;46.312;25.288;2024-02-14T03:16:49;95981.59;;;4.67;73.79
50394;BME280;36308;46.312;25.288;2024-02-14T03:19:14;95985.28;;;4.66;73.84
50394;BME280;36308;46.312;25.288;2024-02-14T03:21:40;95985.72;;;4.63;73.60
50394;BME280;36308;46.312;25.288;2024-02-14T03:24:06;95989.41;;;4.62;73.75
50394;BME280;36308;46.312;25.288;2024-02-14T03:26:36;95946.66;;;4.38;73.40
50394;BME280;36308;46.312;25.288;2024-02-14T03:29:02;95984.56;;;4.59;73.53
50394;BME280;36308;46.312;25.288;2024-02-14T03:31:31;95993.94;;;4.61;73.37
50394;BME280;36308;46.312;25.288;2024-02-14T03:33:57;95995.19;;;4.59;73.71
50394;BME280;36308;46.312;25.288;2024-02-14T03:36:23;95984.97;;;4.56;73.69
50394;BME280;36308;46.312;25.288;2024-02-14T03:38:49;95995.84;;;4.54;73.49
50394;BME280;36308;46.312;25.288;2024-02-14T03:41:15;95980.59;;;4.43;73.34
50394;BME280;36308;46.312;25.288;2024-02-14T03:43:40;95992.81;;;4.51;73.44
50394;BME280;36308;46.312;25.288;2024-02-14T03:46:06;95997.56;;;4.49;73.00
50394;BME280;36308;46.312;25.288;2024-02-14T03:48:31;96007.59;;;4.47;73.47
50394;BME280;36308;46.312;25.288;2024-02-14T03:50:57;95999.81;;;4.45;73.29
50394;BME280;36308;46.312;25.288;2024-02-14T03:53:23;96003.97;;;4.41;73.38
50394;BME280;36308;46.312;25.288;2024-02-14T03:55:49;96008.47;;;4.40;73.43
50394;BME280;36308;46.312;25.288;2024-02-14T03:58:15;96018.53;;;4.38;73.28
50394;BME280;36308;46.312;25.288;2024-02-14T04:00:49;96020.75;;;4.41;73.02
50394;BME280;36308;46.312;25.288;2024-02-14T04:03:16;96018.53;;;4.38;73.26
50394;BME280;36308;46.312;25.288;2024-02-14T04:05:41;96024.88;;;4.37;73.35
50394;BME280;36308;46.312;25.288;2024-02-14T04:08:07;96035.53;;;4.37;73.80
50394;BME280;36308;46.312;25.288;2024-02-14T04:10:38;96034.31;;;4.33;73.15
50394;BME280;36308;46.312;25.288;2024-02-14T04:13:05;96040.84;;;4.37;73.43
50394;BME280;36308;46.312;25.288;2024-02-14T04:15:31;96038.03;;;4.32;73.75
50394;BME280;36308;46.312;25.288;2024-02-14T04:17:57;96039.06;;;4.31;73.19
50394;BME280;36308;46.312;25.288;2024-02-14T04:20:23;96037.81;;;4.34;73.57
50394;BME280;36308;46.312;25.288;2024-02-14T04:22:49;96042.09;;;4.35;73.79
50394;BME280;36308;46.312;25.288;2024-02-14T04:25:14;96041.50;;;4.33;73.91
50394;BME280;36308;46.312;25.288;2024-02-14T04:27:40;96050.28;;;4.33;73.48
50394;BME280;36308;46.312;25.288;2024-02-14T04:30:06;96051.94;;;4.34;73.62
50394;BME280;36308;46.312;25.288;2024-02-14T04:32:31;96040.50;;;4.34;73.90
50394;BME280;36308;46.312;25.288;2024-02-14T04:34:58;96056.22;;;4.35;74.00
50394;BME280;36308;46.312;25.288;2024-02-14T04:37:24;96051.13;;;4.34;74.29
50394;BME280;36308;46.312;25.288;2024-02-14T04:39:49;96064.19;;;4.35;73.86
50394;BME280;36308;46.312;25.288;2024-02-14T04:42:15;96054.59;;;4.34;73.93
50394;BME280;36308;46.312;25.288;2024-02-14T04:44:40;96067.69;;;4.36;73.82
50394;BME280;36308;46.312;25.288;2024-02-14T04:47:06;96074.44;;;4.38;74.10
50394;BME280;36308;46.312;25.288;2024-02-14T04:49:31;96073.03;;;4.36;73.84
50394;BME280;36308;46.312;25.288;2024-02-14T04:51:58;96069.97;;;4.32;74.31
50394;BME280;36308;46.312;25.288;2024-02-14T04:54:23;96082.41;;;4.38;74.40
50394;BME280;36308;46.312;25.288;2024-02-14T04:56:50;96088.56;;;4.39;74.33
50394;BME280;36308;46.312;25.288;2024-02-14T04:59:15;96084.47;;;4.36;74.63
50394;BME280;36308;46.312;25.288;2024-02-14T05:01:41;96088.75;;;4.37;74.61
50394;BME280;36308;46.312;25.288;2024-02-14T05:04:06;96092.47;;;4.36;74.80
50394;BME280;36308;46.312;25.288;2024-02-14T05:06:32;96096.75;;;4.37;74.26
50394;BME280;36308;46.312;25.288;2024-02-14T05:08:58;96103.13;;;4.36;74.14
50394;BME280;36308;46.312;25.288;2024-02-14T05:11:24;96111.69;;;4.38;74.37
50394;BME280;36308;46.312;25.288;2024-02-14T05:13:49;96109.63;;;4.40;74.29
50394;BME280;36308;46.312;25.288;2024-02-14T05:16:19;96113.91;;;4.41;74.16
50394;BME280;36308;46.312;25.288;2024-02-14T05:18:44;96118.63;;;4.39;74.14
50394;BME280;36308;46.312;25.288;2024-02-14T05:21:10;96112.94;;;4.36;74.32
50394;BME280;36308;46.312;25.288;2024-02-14T05:23:35;96120.69;;;4.37;74.33
50394;BME280;36308;46.312;25.288;2024-02-14T05:26:02;96124.41;;;4.36;73.90
50394;BME280;36308;46.312;25.288;2024-02-14T05:28:28;96133.00;;;4.38;74.70
50394;BME280;36308;46.312;25.288;2024-02-14T05:30:54;96132.53;;;4.41;74.15
50394;BME280;36308;46.312;25.288;2024-02-14T05:33:20;96127.44;;;4.40;74.52
50394;BME280;36308;46.312;25.288;2024-02-14T05:35:51;96132.53;;;4.41;74.68
50394;BME280;36308;46.312;25.288;2024-02-14T05:38:17;96131.13;;;4.39;74.39
50394;BME280;36308;46.312;25.288;2024-02-14T05:40:45;96132.16;;;4.38;74.12
50394;BME280;36308;46.312;25.288;2024-02-14T05:43:11;96143.66;;;4.38;74.75
50394;BME280;36308;46.312;25.288;2024-02-14T05:45:36;96146.91;;;4.40;74.29
50394;BME280;36308;46.312;25.288;2024-02-14T05:48:02;96153.84;;;4.41;74.46
50394;BME280;36308;46.312;25.288;2024-02-14T05:50:28;96152.63;;;4.37;74.46
50394;BME280;36308;46.312;25.288;2024-02-14T05:52:54;96135.97;;;4.23;74.29
50394;BME280;36308;46.312;25.288;2024-02-14T05:55:19;96153.69;;;4.36;74.00
50394;BME280;36308;46.312;25.288;2024-02-14T05:57:45;96163.28;;;4.37;74.40
50394;BME280;36308;46.312;25.288;2024-02-14T06:00:11;96164.94;;;4.38;74.11
50394;BME280;36308;46.312;25.288;2024-02-14T06:02:38;96173.94;;;4.37;73.72
50394;BME280;36308;46.312;25.288;2024-02-14T06:05:06;96170.69;;;4.35;74.20
50394;BME280;36308;46.312;25.288;2024-02-14T06:07:35;96173.56;;;4.34;74.24
50394;BME280;36308;46.312;25.288;2024-02-14T06:10:01;96175.59;;;4.38;74.41
50394;BME280;36308;46.312;25.288;2024-02-14T06:12:26;96175.19;;;4.35;74.07
50394;BME280;36308;46.312;25.288;2024-02-14T06:14:52;96170.69;;;4.35;74.33
50394;BME280;36308;46.312;25.288;2024-02-14T06:17:17;96179.25;;;4.37;74.19
50394;BME280;36308;46.312;25.288;2024-02-14T06:19:43;96183.56;;;4.38;74.66
50394;BME280;36308;46.312;25.288;2024-02-14T06:22:08;96184.59;;;4.37;74.10
50394;BME280;36308;46.312;25.288;2024-02-14T06:24:35;96185.78;;;4.41;74.48
50394;BME280;36308;46.312;25.288;2024-02-14T06:27:01;96186.22;;;4.38;74.29
50394;BME280;36308;46.312;25.288;2024-02-14T06:29:27;96194.38;;;4.43;74.55
50394;BME280;36308;46.312;25.288;2024-02-14T06:31:52;96183.13;;;4.41;74.33
50394;BME280;36308;46.312;25.288;2024-02-14T06:34:18;96197.63;;;4.45;74.59
50394;BME280;36308;46.312;25.288;2024-02-14T06:36:46;96181.66;;;4.45;74.88
50394;BME280;36308;46.312;25.288;2024-02-14T06:39:12;96184.34;;;4.45;74.17
50394;BME280;36308;46.312;25.288;2024-02-14T06:41:37;96187.44;;;4.42;74.64
50394;BME280;36308;46.312;25.288;2024-02-14T06:44:06;96184.78;;;4.42;74.41
50394;BME280;36308;46.312;25.288;2024-02-14T06:46:32;96145.81;;;4.16;74.44
50394;BME280;36308;46.312;25.288;2024-02-14T06:48:57;96185.38;;;4.44;74.90
50394;BME280;36308;46.312;25.288;2024-02-14T06:51:23;96187.00;;;4.45;74.47
50394;BME280;36308;46.312;25.288;2024-02-14T06:53:50;96184.94;;;4.48;74.51
50394;BME280;36308;46.312;25.288;2024-02-14T06:56:16;96199.88;;;4.49;74.99
50394;BME280;36308;46.312;25.288;2024-02-14T06:58:41;96197.00;;;4.50;74.87
50394;BME280;36308;46.312;25.288;2024-02-14T07:01:07;96200.50;;;4.51;74.92
50394;BME280;36308;46.312;25.288;2024-02-14T07:03:33;96170.94;;;4.27;74.77
50394;BME280;36308;46.312;25.288;2024-02-14T07:05:59;96217.66;;;4.55;74.90
50394;BME280;36308;46.312;25.288;2024-02-14T07:08:24;96210.31;;;4.50;74.62
50394;BME280;36308;46.312;25.288;2024-02-14T07:10:54;96217.22;;;4.58;74.69
50394;BME280;36308;46.312;25.288;2024-02-14T07:13:20;96218.44;;;4.62;75.10
50394;BME280;36308;46.312;25.288;2024-02-14T07:15:45;96221.28;;;4.67;74.93
50394;BME280;36308;46.312;25.288;2024-02-14T07:18:11;96212.69;;;4.65;74.58
50394;BME280;36308;46.312;25.288;2024-02-14T07:20:36;96224.69;;;4.74;74.75
50394;BME280;36308;46.312;25.288;2024-02-14T07:23:02;96233.28;;;4.76;74.66
50394;BME280;36308;46.312;25.288;2024-02-14T07:25:28;96224.50;;;4.76;74.33
50394;BME280;36308;46.312;25.288;2024-02-14T07:27:53;96222.44;;;4.78;74.47
50394;BME280;36308;46.312;25.288;2024-02-14T07:30:19;96221.16;;;4.80;74.76
50394;BME280;36308;46.312;25.288;2024-02-14T07:32:44;96228.28;;;4.86;74.68
50394;BME280;36308;46.312;25.288;2024-02-14T07:35:10;96227.25;;;4.88;74.96
50394;BME280;36308;46.312;25.288;2024-02-14T07:37:36;96236.44;;;4.92;74.35
50394;BME280;36308;46.312;25.288;2024-02-14T07:40:03;96233.78;;;4.92;74.66
50394;BME280;36308;46.312;25.288;2024-02-14T07:42:28;96235.22;;;4.94;74.48
50394;BME280;36308;46.312;25.288;2024-02-14T07:44:54;96235.81;;;4.96;74.47
50394;BME280;36308;46.312;25.288;2024-02-14T07:47:21;96239.09;;;4.98;74.31
50394;BME280;36308;46.312;25.288;2024-02-14T07:49:47;96246.41;;;5.03;74.27
50394;BME280;36308;46.312;25.288;2024-02-14T07:52:13;96236.19;;;5.00;74.35
50394;BME280;36308;46.312;25.288;2024-02-14T07:54:39;96235.53;;;5.04;73.73
50394;BME280;36308;46.312;25.288;2024-02-14T07:57:04;96243.47;;;5.11;74.13
50394;BME280;36308;46.312;25.288;2024-02-14T07:59:30;96242.44;;;5.12;73.92
50394;BME280;36308;46.312;25.288;2024-02-14T08:01:55;96242.81;;;5.16;74.06
50394;BME280;36308;46.312;25.288;2024-02-14T08:04:23;96254.88;;;5.18;73.52
50394;BME280;36308;46.312;25.288;2024-02-14T08:06:48;96246.69;;;5.20;73.75
50394;BME280;36308;46.312;25.288;2024-02-14T08:09:17;96254.63;;;5.26;74.02
50394;BME280;36308;46.312;25.288;2024-02-14T08:11:43;96251.53;;;5.30;73.45
50394;BME280;36308;46.312;25.288;2024-02-14T08:14:08;96256.19;;;5.34;73.88
50394;BME280;36308;46.312;25.288;2024-02-14T08:16:34;96256.00;;;5.36;73.80
50394;BME280;36308;46.312;25.288;2024-02-14T08:18:59;96257.19;;;5.40;73.56
50394;BME280;36308;46.312;25.288;2024-02-14T08:21:26;96255.72;;;5.44;73.46
50394;BME280;36308;46.312;25.288;2024-02-14T08:23:54;96258.53;;;5.49;73.21
50394;BME280;36308;46.312;25.288;2024-02-14T08:26:21;96267.13;;;5.51;73.39
50394;BME280;36308;46.312;25.288;2024-02-14T08:28:50;96253.78;;;5.51;73.38
50394;BME280;36308;46.312;25.288;2024-02-14T08:31:16;96270.09;;;5.61;72.92
50394;BME280;36308;46.312;25.288;2024-02-14T08:33:42;96247.63;;;5.51;72.68
50394;BME280;36308;46.312;25.288;2024-02-14T08:36:07;96269.81;;;5.70;73.13
50394;BME280;36308;46.312;25.288;2024-02-14T08:38:36;96275.06;;;5.76;73.01
50394;BME280;36308;46.312;25.288;2024-02-14T08:41:02;96269.91;;;5.81;72.52
50394;BME280;36308;46.312;25.288;2024-02-14T08:43:28;96257.16;;;5.83;72.44
50394;BME280;36308;46.312;25.288;2024-02-14T08:45:54;96271.00;;;5.92;72.53
50394;BME280;36308;46.312;25.288;2024-02-14T08:48:20;96277.56;;;5.96;72.55
50394;BME280;36308;46.312;25.288;2024-02-14T08:50:46;96282.03;;;6.02;71.99
50394;BME280;36308;46.312;25.288;2024-02-14T08:53:12;96279.13;;;6.04;72.02
50394;BME280;36308;46.312;25.288;2024-02-14T08:55:39;96276.22;;;6.05;71.52
50394;BME280;36308;46.312;25.288;2024-02-14T08:58:05;96270.84;;;6.12;71.96
50394;BME280;36308;46.312;25.288;2024-02-14T09:00:31;96277.56;;;6.15;71.85
50394;BME280;36308;46.312;25.288;2024-02-14T09:02:57;96284.69;;;6.21;71.72
50394;BME280;36308;46.312;25.288;2024-02-14T09:05:25;96272.38;;;6.20;71.39
50394;BME280;36308;46.312;25.288;2024-02-14T09:07:51;96286.69;;;6.25;71.32
50394;BME280;36308;46.312;25.288;2024-02-14T09:10:16;96280.06;;;6.28;71.38
50394;BME280;36308;46.312;25.288;2024-02-14T09:12:42;96290.31;;;6.31;71.18
50394;BME280;36308;46.312;25.288;2024-02-14T09:15:08;96289.44;;;6.37;71.35
50394;BME280;36308;46.312;25.288;2024-02-14T09:17:33;96282.00;;;6.39;71.17
50394;BME280;36308;46.312;25.288;2024-02-14T09:19:59;96282.81;;;6.40;71.18
50394;BME280;36308;46.312;25.288;2024-02-14T09:22:25;96291.31;;;6.48;70.87
50394;BME280;36308;46.312;25.288;2024-02-14T09:24:50;96295.75;;;6.55;70.92
50394;BME280;36308;46.312;25.288;2024-02-14T09:27:16;96293.22;;;6.60;70.65
50394;BME280;36308;46.312;25.288;2024-02-14T09:29:42;96298.94;;;6.63;70.85
50394;BME280;36308;46.312;25.288;2024-02-14T09:32:07;96293.97;;;6.67;70.41
50394;BME280;36308;46.312;25.288;2024-02-14T09:34:34;96304.13;;;6.77;69.97
50394;BME280;36308;46.312;25.288;2024-02-14T09:36:59;96275.84;;;6.69;70.37
50394;BME280;36308;46.312;25.288;2024-02-14T09:39:25;96288.56;;;6.85;70.14
50394;BME280;36308;46.312;25.288;2024-02-14T09:41:59;96297.44;;;6.98;69.89
50394;BME280;36308;46.312;25.288;2024-02-14T09:44:28;96295.47;;;7.05;69.56
50394;BME280;36308;46.312;25.288;2024-02-14T09:46:56;96295.16;;;7.13;69.66
50394;BME280;36308;46.312;25.288;2024-02-14T09:49:24;96289.00;;;7.13;69.19
50394;BME280;36308;46.312;25.288;2024-02-14T09:51:51;96296.47;;;7.22;69.17
50394;BME280;36308;46.312;25.288;2024-02-14T09:54:17;96299.72;;;7.24;68.02
50394;BME280;36308;46.312;25.288;2024-02-14T09:56:49;96291.81;;;7.29;67.90
50394;BME280;36308;46.312;25.288;2024-02-14T09:59:16;96276.44;;;7.13;67.35
50394;BME280;36308;46.312;25.288;2024-02-14T10:01:42;96291.91;;;7.23;67.11
50394;BME280;36308;46.312;25.288;2024-02-14T10:04:08;96296.72;;;7.33;67.50
50394;BME280;36308;46.312;25.288;2024-02-14T10:06:35;96301.22;;;7.32;67.15
50394;BME280;36308;46.312;25.288;2024-02-14T10:09:02;96294.03;;;7.33;66.58
50394;BME280;36308;46.312;25.288;2024-02-14T10:11:28;96296.25;;;7.36;66.58
50394;BME280;36308;46.312;25.288;2024-02-14T10:13:53;96300.78;;;7.35;66.51
50394;BME280;36308;46.312;25.288;2024-02-14T10:16:22;96278.91;;;7.26;66.27
50394;BME280;36308;46.312;25.288;2024-02-14T10:18:48;96300.09;;;7.40;66.16
50394;BME280;36308;46.312;25.288;2024-02-14T10:21:16;96308.69;;;7.42;66.34
50394;BME280;36308;46.312;25.288;2024-02-14T10:23:44;96299.16;;;7.46;66.05
50394;BME280;36308;46.312;25.288;2024-02-14T10:26:10;96304.41;;;7.53;66.04
50394;BME280;36308;46.312;25.288;2024-02-14T10:28:36;96309.03;;;7.57;65.59
50394;BME280;36308;46.312;25.288;2024-02-14T10:31:02;96305.69;;;7.62;65.76
50394;BME280;36308;46.312;25.288;2024-02-14T10:33:30;96307.66;;;7.66;65.03
50394;BME280;36308;46.312;25.288;2024-02-14T10:35:57;96306.75;;;7.73;65.05
50394;BME280;36308;46.312;25.288;2024-02-14T10:38:24;96298.50;;;7.74;65.52
50394;BME280;36308;46.312;25.288;2024-02-14T10:40:51;96302.56;;;7.77;65.32
50394;BME280;36308;46.312;25.288;2024-02-14T10:43:17;96310.69;;;7.82;64.28
50394;BME280;36308;46.312;25.288;2024-02-14T10:45:43;96305.22;;;7.77;64.62
50394;BME280;36308;46.312;25.288;2024-02-14T10:48:12;96313.03;;;7.78;63.63
50394;BME280;36308;46.312;25.288;2024-02-14T10:50:41;96311.03;;;7.74;63.52
50394;BME280;36308;46.312;25.288;2024-02-14T10:53:12;96316.72;;;7.65;63.68
50394;BME280;36308;46.312;25.288;2024-02-14T10:55:40;96318.25;;;7.61;63.89
50394;BME280;36308;46.312;25.288;2024-02-14T10:58:08;96297.88;;;7.37;63.67
50394;BME280;36308;46.312;25.288;2024-02-14T11:00:37;96313.00;;;7.43;64.05
50394;BME280;36308;46.312;25.288;2024-02-14T11:03:03;96308.59;;;7.37;63.61
50394;BME280;36308;46.312;25.288;2024-02-14T11:05:29;96326.84;;;7.40;64.49
50394;BME280;36308;46.312;25.288;2024-02-14T11:07:55;96314.84;;;7.31;64.19
50394;BME280;36308;46.312;25.288;2024-02-14T11:10:22;96320.19;;;7.31;63.96
50394;BME280;36308;46.312;25.288;2024-02-14T11:12:49;96323.31;;;7.27;64.39
50394;BME280;36308;46.312;25.288;2024-02-14T11:15:21;96312.25;;;7.24;64.34
50394;BME280;36308;46.312;25.288;2024-02-14T11:17:47;96318.66;;;7.23;64.50
50394;BME280;36308;46.312;25.288;2024-02-14T11:22:53;96310.75;;;7.16;64.61
50394;BME280;36308;46.312;25.288;2024-02-14T11:25:28;96314.22;;;7.17;65.02
50394;BME280;36308;46.312;25.288;2024-02-14T11:27:55;96315.63;;;7.19;64.61
50394;BME280;36308;46.312;25.288;2024-02-14T11:30:30;96310.59;;;7.11;64.38
50394;BME280;36308;46.312;25.288;2024-02-14T11:33:15;96314.66;;;7.14;64.59
50394;BME280;36308;46.312;25.288;2024-02-14T11:35:41;96312.25;;;7.12;65.03
50394;BME280;36308;46.312;25.288;2024-02-14T11:38:08;96311.19;;;7.13;64.53
50394;BME280;36308;46.312;25.288;2024-02-14T11:40:34;96306.91;;;7.12;64.59
50394;BME280;36308;46.312;25.288;2024-02-14T11:43:00;96313.88;;;7.13;64.52
50394;BME280;36308;46.312;25.288;2024-02-14T11:45:27;96313.88;;;7.13;64.38
50394;BME280;36308;46.312;25.288;2024-02-14T11:47:53;96309.31;;;7.14;64.59
50394;BME280;36308;46.312;25.288;2024-02-14T11:50:19;96319.94;;;7.20;64.24
50394;BME280;36308;46.312;25.288;2024-02-14T11:52:44;96311.91;;;7.20;64.27
50394;BME280;36308;46.312;25.288;2024-02-14T11:55:10;96313.09;;;7.24;65.05
50394;BME280;36308;46.312;25.288;2024-02-14T11:57:37;96313.31;;;7.23;64.55
50394;BME280;36308;46.312;25.288;2024-02-14T12:00:04;96314.00;;;7.30;64.79
50394;BME280;36308;46.312;25.288;2024-02-14T12:02:30;96308.66;;;7.30;64.81
50394;BME280;36308;46.312;25.288;2024-02-14T12:04:57;96314.84;;;7.31;64.08
50394;BME280;36308;46.312;25.288;2024-02-14T12:07:24;96314.84;;;7.31;63.78
50394;BME280;36308;46.312;25.288;2024-02-14T12:09:50;96319.13;;;7.32;63.14
50394;BME280;36308;46.312;25.288;2024-02-14T12:12:16;96317.38;;;7.25;63.31
50394;BME280;36308;46.312;25.288;2024-02-14T12:14:44;96314.34;;;7.22;62.90
50394;BME280;36308;46.312;25.288;2024-02-14T12:17:10;96314.59;;;7.20;63.02
50394;BME280;36308;46.312;25.288;2024-02-14T12:19:36;96321.56;;;7.21;62.79
50394;BME280;36308;46.312;25.288;2024-02-14T12:22:09;96316.69;;;7.18;63.16
50394;BME280;36308;46.312;25.288;2024-02-14T12:24:46;96324.13;;;7.16;62.90
50394;BME280;36308;46.312;25.288;2024-02-14T12:27:13;96324.44;;;7.20;63.29
50394;BME280;36308;46.312;25.288;2024-02-14T12:29:38;96325.28;;;7.20;63.34
50394;BME280;36308;46.312;25.288;2024-02-14T12:32:08;96321.56;;;7.21;63.25
50394;BME280;36308;46.312;25.288;2024-02-14T12:34:34;96326.09;;;7.21;63.47
50394;BME280;36308;46.312;25.288;2024-02-14T12:37:00;96321.56;;;7.21;63.44
50394;BME280;36308;46.312;25.288;2024-02-14T12:39:29;96324.00;;;7.23;63.16
50394;BME280;36308;46.312;25.288;2024-02-14T12:41:54;96332.63;;;7.25;63.41
50394;BME280;36308;46.312;25.288;2024-02-14T12:44:20;96330.16;;;7.23;62.79
50394;BME280;36308;46.312;25.288;2024-02-14T12:46:46;96314.00;;;7.18;62.79
50394;BME280;36308;46.312;25.288;2024-02-14T12:49:11;96330.16;;;7.23;63.44
50394;BME280;36308;46.312;25.288;2024-02-14T12:51:37;96329.13;;;7.24;62.92
50394;BME280;36308;46.312;25.288;2024-02-14T12:54:04;96328.88;;;7.26;63.34
50394;BME280;36308;46.312;25.288;2024-02-14T12:56:31;96331.13;;;7.29;63.69
50394;BME280;36308;46.312;25.288;2024-02-14T12:58:57;96340.31;;;7.33;63.51